Uega, Russia
Current Conditions -  °F | °C
As of 8:00 PM on Friday 24 Oct 2014 (Local Time) from UHMM Reporting Station
Clear Clear  
Wind Chill: -6°   Ceiling: Unl
Heat Index: -6°   Visibility: 6mi
Dew Point: -11°   Wind: 2mph
Humidity: 77%   Direction: 280°W
Pressure: 29.62"   Gusts: NA
Location:  60.73°N, 142.75°E
Report Text: UHMM 241000Z 28001MPS 9999 SKC M21/M24 Q1003 RMK QFE737
Loading
Personal Weather Stations






























Interactive Weather Map
Tropical Storm Tracking
New forecast layout! Learn more

10-Day Weather Forecast

Advertisements
Track Severe Weather on mobile